Time;durP1;ratioP1;P1;durP2;ratioP2;P2;SDS_P1;SDS_P2;PMS_P1;PMS_P2;Temp;Humidity;BMP_temperature;BMP_pressure;BME280_temperature;BME280_humidity;BME280_pressure;Samples;Min_cycle;Max_cycle;Signal;HPM_P1;HPM_P2
2022/03/29 00:00:08;;;;;;;7.93;6.45;;;14.60;52.40;;;;;;5053148;28;20285;-85
2022/03/29 00:02:36;;;;;;;13.02;8.50;;;14.50;52.70;;;;;;5052729;28;20285;-87
2022/03/29 00:05:05;;;;;;;12.35;8.38;;;14.50;52.50;;;;;;5052926;28;20202;-87
2022/03/29 00:07:34;;;;;;;10.50;7.78;;;14.50;52.60;;;;;;5053263;28;20261;-87
2022/03/29 00:10:04;;;;;;;9.55;7.75;;;14.50;52.70;;;;;;5053435;28;20235;-87
2022/03/29 00:12:35;;;;;;;8.60;7.68;;;14.40;52.70;;;;;;5052382;28;20249;-85
2022/03/29 00:15:11;;;;;;;11.13;7.88;;;14.40;52.60;;;;;;5053228;28;20293;-87
2022/03/29 00:17:40;;;;;;;12.05;7.30;;;14.50;52.70;;;;;;5052677;28;20222;-86
2022/03/29 00:20:09;;;;;;;10.32;8.50;;;14.50;52.60;;;;;;5052744;28;20217;-87
2022/03/29 00:22:38;;;;;;;12.40;8.50;;;14.50;52.70;;;;;;5052905;28;20229;-87
2022/03/29 00:25:08;;;;;;;9.30;8.05;;;14.50;52.70;;;;;;5052763;28;20260;-86
2022/03/29 00:27:38;;;;;;;9.20;7.70;;;14.40;52.70;;;;;;5053030;28;20281;-86
2022/03/29 00:30:11;;;;;;;10.07;7.72;;;14.40;52.80;;;;;;5053058;28;20228;-86
2022/03/29 00:32:40;;;;;;;10.10;8.40;;;14.40;52.90;;;;;;5052377;28;20242;-86
2022/03/29 00:35:10;;;;;;;8.48;7.55;;;14.40;52.90;;;;;;5052883;28;20265;-87
2022/03/29 00:37:38;;;;;;;9.25;7.80;;;14.40;52.90;;;;;;5051812;28;20256;-86
2022/03/29 00:40:09;;;;;;;12.80;7.90;;;14.30;53.20;;;;;;5052973;28;20210;-86
2022/03/29 00:42:39;;;;;;;10.30;8.20;;;14.30;53.10;;;;;;5052814;28;20226;-87
2022/03/29 00:45:09;;;;;;;10.38;8.38;;;14.30;53.10;;;;;;5052537;28;20233;-86
2022/03/29 00:47:38;;;;;;;9.07;7.47;;;14.30;53.10;;;;;;5052959;28;20206;-87
2022/03/29 00:50:07;;;;;;;8.82;7.82;;;14.30;53.20;;;;;;5052528;28;20256;-87
2022/03/29 00:52:37;;;;;;;8.20;7.28;;;14.30;53.20;;;;;;5052256;28;20312;-86
2022/03/29 00:55:07;;;;;;;9.95;8.95;;;14.30;53.10;;;;;;5052632;28;20285;-86
2022/03/29 00:57:38;;;;;;;16.45;7.60;;;14.30;53.10;;;;;;5052535;28;20218;-86
2022/03/29 01:00:08;;;;;;;12.95;8.90;;;14.30;53.20;;;;;;5052491;28;20206;-87
2022/03/29 01:02:36;;;;;;;12.70;8.63;;;14.30;53.40;;;;;;5052498;28;20233;-87
2022/03/29 01:05:05;;;;;;;8.77;7.72;;;14.30;53.40;;;;;;5052504;28;20201;-86
2022/03/29 01:07:35;;;;;;;14.00;8.15;;;14.30;53.40;;;;;;5052532;28;20206;-86
2022/03/29 01:10:04;;;;;;;9.25;7.78;;;14.30;53.40;;;;;;5052223;28;20305;-86
2022/03/29 01:12:33;;;;;;;10.38;7.78;;;14.30;53.40;;;;;;5052321;28;20222;-85
2022/03/29 01:15:06;;;;;;;8.13;7.32;;;14.20;53.50;;;;;;5052734;28;20289;-87
2022/03/29 01:17:39;;;;;;;10.35;7.45;;;14.20;53.80;;;;;;5051974;28;20228;-86
2022/03/29 01:20:11;;;;;;;11.85;8.07;;;14.20;53.70;;;;;;5052185;28;20293;-86
2022/03/29 01:22:43;;;;;;;17.20;7.95;;;14.10;53.80;;;;;;5051656;28;20289;-85
2022/03/29 01:25:15;;;;;;;9.15;8.23;;;14.10;54.10;;;;;;5051994;28;20216;-86
2022/03/29 01:27:45;;;;;;;10.38;7.55;;;14.00;54.10;;;;;;5052295;28;20202;-86
2022/03/29 01:30:14;;;;;;;11.15;8.13;;;14.00;54.10;;;;;;5052490;28;20292;-85
2022/03/29 01:32:45;;;;;;;9.90;8.02;;;14.00;54.30;;;;;;5052048;28;20253;-87
2022/03/29 01:35:16;;;;;;;16.67;8.10;;;13.90;54.40;;;;;;5051940;28;20288;-87
2022/03/29 01:37:46;;;;;;;11.20;8.10;;;13.90;54.30;;;;;;5051728;28;20225;-86
2022/03/29 01:40:16;;;;;;;8.80;7.25;;;13.90;54.40;;;;;;5052424;28;20306;-87
2022/03/29 01:42:48;;;;;;;8.57;7.68;;;13.90;54.60;;;;;;5051952;28;20233;-86
2022/03/29 01:45:17;;;;;;;9.98;8.30;;;13.80;54.60;;;;;;5051856;28;20235;-86
2022/03/29 01:47:45;;;;;;;9.57;8.35;;;13.90;54.70;;;;;;5052226;28;20229;-86
2022/03/29 01:50:14;;;;;;;8.38;7.22;;;13.80;54.70;;;;;;5052055;28;20216;-87
2022/03/29 01:52:46;;;;;;;8.55;7.68;;;13.80;55.20;;;;;;5051900;28;20229;-86
2022/03/29 01:55:17;;;;;;;10.07;7.90;;;13.70;54.90;;;;;;5052096;28;20218;-87
2022/03/29 01:57:47;;;;;;;9.15;7.22;;;13.70;54.90;;;;;;5052029;28;20301;-86
2022/03/29 02:00:33;;;;;;;7.63;6.97;;;13.70;55.00;;;;;;5051996;28;20267;-87
2022/03/29 02:03:04;;;;;;;16.27;7.82;;;13.70;55.10;;;;;;5055307;28;20309;-86
2022/03/29 02:05:33;;;;;;;9.80;7.28;;;13.70;55.10;;;;;;5055697;28;20213;-86
2022/03/29 02:08:03;;;;;;;21.67;8.07;;;13.70;55.20;;;;;;5055878;28;20248;-87
2022/03/29 02:10:32;;;;;;;8.68;7.43;;;13.60;55.20;;;;;;5055759;28;20265;-87
2022/03/29 02:13:00;;;;;;;10.30;8.48;;;13.60;55.50;;;;;;5055819;28;20260;-87
2022/03/29 02:15:29;;;;;;;9.75;8.38;;;13.60;55.40;;;;;;5055713;28;20217;-87
2022/03/29 02:17:57;;;;;;;9.15;7.55;;;13.60;55.30;;;;;;5055826;28;20228;-87
2022/03/29 02:20:26;;;;;;;8.93;7.95;;;13.60;55.40;;;;;;5055443;28;20201;-87
2022/03/29 02:22:55;;;;;;;15.35;7.78;;;13.60;55.50;;;;;;5055525;28;20225;-87
2022/03/29 02:25:24;;;;;;;10.25;7.85;;;13.60;55.70;;;;;;5055182;28;20210;-87
2022/03/29 02:27:53;;;;;;;10.88;8.63;;;13.50;55.70;;;;;;5055329;28;20200;-86
2022/03/29 02:30:21;;;;;;;9.70;8.18;;;13.50;55.70;;;;;;5055128;28;20209;-86
2022/03/29 02:32:49;;;;;;;9.60;7.82;;;13.50;55.80;;;;;;5055024;28;20312;-85
2022/03/29 02:35:18;;;;;;;10.45;7.88;;;13.40;55.80;;;;;;5055562;28;20202;-86
2022/03/29 02:37:46;;;;;;;12.15;8.35;;;13.40;56.40;;;;;;5055160;28;20304;-86
2022/03/29 02:40:15;;;;;;;8.13;7.32;;;13.40;56.00;;;;;;5055018;28;20209;-87
2022/03/29 02:42:47;;;;;;;11.38;8.02;;;13.40;56.20;;;;;;5055212;28;20236;-87
2022/03/29 02:45:16;;;;;;;10.18;8.20;;;13.30;56.20;;;;;;5055044;28;20201;-85
2022/03/29 02:47:44;;;;;;;9.68;8.02;;;13.40;56.20;;;;;;5054767;28;20212;-86
2022/03/29 02:50:13;;;;;;;9.18;7.85;;;13.40;57.20;;;;;;5054727;28;20210;-86
2022/03/29 02:52:46;;;;;;;11.77;7.85;;;13.40;56.20;;;;;;5054559;28;20229;-86
2022/03/29 02:55:15;;;;;;;10.65;8.00;;;13.40;56.20;;;;;;5054826;28;20212;-86
2022/03/29 02:57:43;;;;;;;9.77;7.97;;;13.40;56.10;;;;;;5055112;28;20206;-87
2022/03/29 03:00:16;;;;;;;10.25;8.43;;;13.40;56.10;;;;;;5060443;28;20213;-86
2022/03/29 03:02:45;;;;;;;8.65;7.75;;;13.40;56.00;;;;;;5054769;28;20256;-87
2022/03/29 03:05:14;;;;;;;9.35;8.35;;;13.40;56.60;;;;;;5054796;28;20221;-86
2022/03/29 03:07:43;;;;;;;10.80;7.88;;;13.40;55.90;;;;;;5054543;28;20241;-86
2022/03/29 03:10:12;;;;;;;11.02;8.48;;;13.40;56.00;;;;;;5054193;28;20232;-86
2022/03/29 03:12:42;;;;;;;10.05;8.30;;;13.40;56.00;;;;;;5053967;28;20253;-86
2022/03/29 03:15:14;;;;;;;10.25;7.78;;;13.40;55.90;;;;;;5054408;28;20205;-86
2022/03/29 03:17:42;;;;;;;9.52;7.68;;;13.40;55.90;;;;;;5058827;28;20257;-86
2022/03/29 03:20:12;;;;;;;8.65;7.80;;;13.40;56.00;;;;;;5056295;28;20235;-87
2022/03/29 03:22:41;;;;;;;9.88;7.38;;;13.40;56.10;;;;;;5054076;28;20237;-86
2022/03/29 03:25:11;;;;;;;19.45;8.27;;;13.40;56.10;;;;;;5054200;28;20217;-86
2022/03/29 03:27:40;;;;;;;12.57;8.52;;;13.40;56.30;;;;;;5054515;28;20206;-86
2022/03/29 03:30:12;;;;;;;9.98;8.88;;;13.40;56.20;;;;;;5054147;28;20206;-87
2022/03/29 03:32:42;;;;;;;11.80;8.50;;;13.40;56.30;;;;;;5054041;28;20237;-87
2022/03/29 03:35:17;;;;;;;9.50;8.25;;;13.40;56.30;;;;;;5054207;28;20205;-87
2022/03/29 03:37:46;;;;;;;11.98;8.23;;;13.30;56.40;;;;;;5053958;28;20268;-86
2022/03/29 03:40:15;;;;;;;11.45;8.13;;;13.30;56.50;;;;;;5053733;28;20260;-86
2022/03/29 03:42:43;;;;;;;13.55;8.00;;;13.30;56.30;;;;;;5053806;28;20230;-86
2022/03/29 03:45:12;;;;;;;10.77;8.13;;;13.30;56.10;;;;;;5053627;28;20322;-85
2022/03/29 03:47:41;;;;;;;10.50;8.00;;;13.30;56.00;;;;;;5053838;28;20284;-86
2022/03/29 03:50:11;;;;;;;10.02;7.85;;;13.40;56.30;;;;;;5053728;28;20212;-86
2022/03/29 03:52:39;;;;;;;10.35;7.78;;;13.40;55.90;;;;;;5053501;28;20304;-86
2022/03/29 03:55:08;;;;;;;11.38;8.32;;;13.40;56.20;;;;;;5053367;28;20280;-87
2022/03/29 03:57:37;;;;;;;10.45;7.90;;;13.30;56.30;;;;;;5053324;28;20208;-86
2022/03/29 04:00:06;;;;;;;11.13;9.25;;;13.40;56.20;;;;;;5053282;28;20313;-86
2022/03/29 04:02:34;;;;;;;14.38;9.73;;;13.40;56.00;;;;;;5053399;28;20317;-87
2022/03/29 04:05:08;;;;;;;10.15;8.25;;;13.40;55.90;;;;;;5053806;28;20209;-86
2022/03/29 04:07:36;;;;;;;13.57;8.80;;;13.50;56.20;;;;;;5053446;28;20213;-86
2022/03/29 04:10:05;;;;;;;9.00;8.10;;;13.50;56.50;;;;;;5053388;28;20285;-86
2022/03/29 04:12:34;;;;;;;9.02;8.10;;;13.40;57.10;;;;;;5053071;28;20316;-85
2022/03/29 04:15:02;;;;;;;8.63;7.72;;;13.30;56.80;;;;;;5053313;28;20340;-86
2022/03/29 04:17:31;;;;;;;8.60;7.70;;;13.30;57.20;;;;;;5053478;28;20210;-86
2022/03/29 04:20:01;;;;;;;10.55;7.97;;;13.20;58.00;;;;;;5052927;28;20221;-86
2022/03/29 04:22:31;;;;;;;13.77;7.45;;;13.10;58.40;;;;;;5052979;28;20280;-86
2022/03/29 04:24:59;;;;;;;11.23;8.57;;;12.90;59.10;;;;;;5052349;28;20213;-85
2022/03/29 04:27:28;;;;;;;7.18;6.47;;;12.60;59.70;;;;;;5053200;28;20296;-86
2022/03/29 04:29:56;;;;;;;12.98;6.95;;;12.50;60.50;;;;;;5053148;28;20236;-86
2022/03/29 04:32:24;;;;;;;16.88;7.20;;;12.30;61.90;;;;;;5052567;28;20255;-85
2022/03/29 04:34:52;;;;;;;6.80;6.18;;;12.20;62.10;;;;;;5052892;28;20206;-85
2022/03/29 04:37:24;;;;;;;8.30;7.55;;;12.00;62.10;;;;;;5052592;28;20205;-86
2022/03/29 04:39:53;;;;;;;11.23;7.95;;;11.90;62.40;;;;;;5052578;28;20317;-86
2022/03/29 04:42:22;;;;;;;7.70;6.88;;;11.70;62.90;;;;;;5052507;28;20313;-85
2022/03/29 04:44:51;;;;;;;10.90;7.43;;;11.60;63.40;;;;;;5052583;28;20265;-85
2022/03/29 04:47:19;;;;;;;9.30;6.65;;;11.50;63.90;;;;;;5052638;28;20309;-85
2022/03/29 04:49:47;;;;;;;13.07;8.18;;;11.50;64.10;;;;;;5052655;28;20194;-85
2022/03/29 04:52:16;;;;;;;9.35;7.55;;;11.40;64.60;;;;;;5052475;28;20313;-85
2022/03/29 04:54:44;;;;;;;8.95;7.15;;;11.40;64.90;;;;;;5052606;28;20293;-85
2022/03/29 04:57:14;;;;;;;8.57;7.45;;;11.40;65.00;;;;;;5052613;28;20266;-85
2022/03/29 04:59:42;;;;;;;11.27;7.75;;;11.40;65.30;;;;;;5052248;28;20306;-85
2022/03/29 05:02:15;;;;;;;12.88;8.77;;;11.30;65.40;;;;;;5052103;28;20229;-85
2022/03/29 05:04:44;;;;;;;9.32;7.47;;;11.30;65.80;;;;;;5052375;28;20209;-85
2022/03/29 05:07:12;;;;;;;13.23;9.30;;;11.30;66.10;;;;;;5052315;28;20301;-85
2022/03/29 05:09:41;;;;;;;8.98;7.40;;;11.50;66.00;;;;;;5052554;28;20240;-85
2022/03/29 05:12:09;;;;;;;10.85;8.02;;;11.60;65.40;;;;;;5052463;28;20233;-85
2022/03/29 05:14:39;;;;;;;8.63;7.75;;;11.80;62.70;;;;;;5052320;28;20202;-85
2022/03/29 05:17:07;;;;;;;11.55;7.72;;;11.90;63.10;;;;;;5052015;28;20282;-86
2022/03/29 05:19:36;;;;;;;13.25;8.35;;;12.10;63.00;;;;;;5051800;28;20225;-85
2022/03/29 05:22:04;;;;;;;9.85;7.63;;;12.40;61.80;;;;;;5052370;28;20313;-86
2022/03/29 05:24:33;;;;;;;8.07;7.28;;;12.50;61.50;;;;;;5052377;28;20201;-85
2022/03/29 05:27:01;;;;;;;9.55;7.60;;;12.70;61.30;;;;;;5052358;28;20210;-86
2022/03/29 05:29:30;;;;;;;10.10;7.88;;;12.80;61.10;;;;;;5052040;28;20198;-85
2022/03/29 05:32:00;;;;;;;8.82;7.75;;;12.90;60.90;;;;;;5052309;28;20247;-86
2022/03/29 05:34:29;;;;;;;10.45;7.95;;;13.00;60.50;;;;;;5052162;28;20210;-85
2022/03/29 05:36:57;;;;;;;9.23;8.32;;;13.10;60.70;;;;;;5055628;28;20267;-85
2022/03/29 05:39:26;;;;;;;11.32;8.30;;;13.20;60.10;;;;;;5056096;28;20289;-85
2022/03/29 05:41:54;;;;;;;9.60;8.38;;;13.30;60.20;;;;;;5055888;28;20503;-85
2022/03/29 05:44:22;;;;;;;11.15;8.27;;;13.40;60.00;;;;;;5055826;28;20229;-85
2022/03/29 05:49:37;;;;;;;9.32;8.52;;;13.60;60.90;;;;;;5056405;28;20288;-86
2022/03/29 05:52:06;;;;;;;11.23;8.77;;;13.70;59.60;;;;;;5055350;28;20277;-85
2022/03/29 05:54:35;;;;;;;12.88;9.60;;;13.70;59.40;;;;;;5056290;28;20209;-85
2022/03/29 05:57:04;;;;;;;9.40;7.90;;;13.80;59.50;;;;;;5055590;28;20202;-85
2022/03/29 05:59:33;;;;;;;10.75;8.68;;;13.90;59.50;;;;;;5055437;28;20242;-86
2022/03/29 06:02:04;;;;;;;15.65;9.10;;;13.90;59.50;;;;;;5055750;28;20238;-86
2022/03/29 06:04:33;;;;;;;8.90;8.00;;;13.80;59.40;;;;;;5055742;28;20284;-86
2022/03/29 06:07:04;;;;;;;10.98;8.90;;;13.90;59.60;;;;;;5055688;28;20228;-85
2022/03/29 06:09:33;;;;;;;9.57;8.05;;;13.90;59.50;;;;;;5055676;28;20217;-85
2022/03/29 06:12:01;;;;;;;13.48;9.63;;;13.90;59.60;;;;;;5055533;28;20221;-87
2022/03/29 06:14:30;;;;;;;12.93;9.88;;;13.90;59.50;;;;;;5055705;28;20296;-86
2022/03/29 06:17:00;;;;;;;10.07;8.90;;;13.90;59.50;;;;;;5055698;28;20206;-86
2022/03/29 06:19:28;;;;;;;9.90;8.23;;;13.90;59.40;;;;;;5055357;28;20221;-86
2022/03/29 06:21:56;;;;;;;9.45;8.32;;;13.90;59.40;;;;;;5055187;28;20238;-85
2022/03/29 06:24:26;;;;;;;11.25;8.50;;;13.90;59.60;;;;;;5055485;28;20212;-85
2022/03/29 06:26:55;;;;;;;13.40;8.48;;;13.90;61.10;;;;;;5055336;28;20262;-85
2022/03/29 06:29:23;;;;;;;11.02;9.02;;;13.90;59.80;;;;;;5055237;28;20292;-86
2022/03/29 06:31:52;;;;;;;14.77;9.43;;;13.90;59.60;;;;;;5055043;28;20230;-85
2022/03/29 06:34:20;;;;;;;9.95;8.65;;;14.00;59.80;;;;;;5055252;28;20206;-85
2022/03/29 06:36:48;;;;;;;12.13;9.00;;;14.00;60.20;;;;;;5055161;28;20280;-86
2022/03/29 06:39:17;;;;;;;13.18;9.10;;;14.10;59.60;;;;;;5055142;28;20202;-85
2022/03/29 06:41:46;;;;;;;11.98;9.18;;;14.20;59.40;;;;;;5054464;28;20236;-85
2022/03/29 06:44:15;;;;;;;10.57;8.85;;;14.30;59.20;;;;;;5055100;28;20210;-86
2022/03/29 06:46:43;;;;;;;15.05;9.27;;;14.40;58.90;;;;;;5055021;28;20301;-86
2022/03/29 06:49:11;;;;;;;11.15;9.48;;;14.50;58.80;;;;;;5054846;28;20209;-85
2022/03/29 06:51:41;;;;;;;21.75;9.05;;;14.50;58.50;;;;;;5054827;28;20305;-85
2022/03/29 06:54:09;;;;;;;20.73;8.52;;;14.60;58.10;;;;;;5061465;28;20206;-85
2022/03/29 06:56:38;;;;;;;10.13;9.07;;;14.70;57.90;;;;;;5054788;28;20269;-86
2022/03/29 06:59:07;;;;;;;10.82;8.95;;;14.70;57.30;;;;;;5054872;28;20234;-85
2022/03/29 07:01:36;;;;;;;9.68;7.90;;;14.80;56.80;;;;;;5054438;28;20229;-85
2022/03/29 07:04:07;;;;;;;11.48;8.63;;;14.90;56.20;;;;;;5054903;28;20213;-85
2022/03/29 07:06:36;;;;;;;12.18;8.07;;;15.00;56.30;;;;;;5054534;28;20209;-85
2022/03/29 07:12:11;;;;;;;11.73;8.60;;;15.20;55.70;;;;;;5060686;28;20217;-84
2022/03/29 07:14:41;;;;;;;10.65;8.20;;;15.40;55.30;;;;;;5054841;28;20296;-85
2022/03/29 07:17:13;;;;;;;13.13;7.85;;;15.50;54.60;;;;;;5054579;28;20206;-85
2022/03/29 07:19:41;;;;;;;8.43;7.63;;;15.60;53.90;;;;;;5054195;28;20213;-84
2022/03/29 07:22:10;;;;;;;8.98;8.18;;;15.70;53.60;;;;;;5053860;28;20320;-85
2022/03/29 07:24:38;;;;;;;12.68;9.55;;;15.70;53.40;;;;;;5054302;28;20205;-86
2022/03/29 07:27:07;;;;;;;11.63;8.73;;;15.90;53.10;;;;;;5054429;28;20265;-86
2022/03/29 07:29:36;;;;;;;9.68;8.70;;;16.00;52.90;;;;;;5054132;28;20210;-85
2022/03/29 07:32:07;;;;;;;13.25;9.18;;;16.00;52.50;;;;;;5053873;28;20309;-86
2022/03/29 07:34:35;;;;;;;10.85;8.02;;;16.00;52.70;;;;;;5054299;28;20210;-86
2022/03/29 07:37:05;;;;;;;9.68;8.43;;;16.20;52.70;;;;;;5054143;28;20239;-85
2022/03/29 07:39:33;;;;;;;10.70;8.38;;;16.20;52.40;;;;;;5053999;28;20293;-85
2022/03/29 07:42:03;;;;;;;11.20;8.85;;;16.30;52.00;;;;;;5053381;28;20229;-85
2022/03/29 07:44:31;;;;;;;9.90;8.15;;;16.40;51.70;;;;;;5053745;28;20210;-85
2022/03/29 07:47:00;;;;;;;8.70;7.55;;;16.40;51.60;;;;;;5053899;28;20208;-84
2022/03/29 07:49:30;;;;;;;14.65;8.73;;;16.40;51.70;;;;;;5053729;28;20216;-85
2022/03/29 07:52:18;;;;;;;9.18;8.27;;;16.50;51.50;;;;;;5053217;28;20218;-84
2022/03/29 07:54:46;;;;;;;13.38;9.57;;;16.60;51.30;;;;;;5053530;28;20245;-85
2022/03/29 07:57:15;;;;;;;9.60;7.30;;;16.60;51.20;;;;;;5053292;28;20213;-85
2022/03/29 08:00:31;;;;;;;9.85;8.32;;;16.70;51.10;;;;;;5052630;28;20197;-85
2022/03/29 08:02:54;;;;;;;10.90;8.65;;;16.70;51.00;;;;;;5053799;28;20313;-85
2022/03/29 08:05:24;;;;;;;8.85;7.95;;;16.80;50.70;;;;;;5053532;28;20202;-84
2022/03/29 08:07:53;;;;;;;11.27;9.27;;;16.90;50.50;;;;;;5053402;28;20297;-85
2022/03/29 08:10:21;;;;;;;12.32;8.88;;;17.10;50.20;;;;;;5053699;28;20301;-85
2022/03/29 08:12:49;;;;;;;10.43;8.55;;;17.10;50.20;;;;;;5053418;28;20248;-85
2022/03/29 08:15:18;;;;;;;10.65;8.70;;;17.20;50.00;;;;;;5053472;28;20206;-84
2022/03/29 08:17:47;;;;;;;10.18;9.00;;;17.40;49.60;;;;;;5053656;28;20201;-85
2022/03/29 08:20:15;;;;;;;11.13;8.82;;;17.50;49.70;;;;;;5053204;28;20245;-84
2022/03/29 08:22:46;;;;;;;8.88;7.28;;;17.60;49.30;;;;;;5052784;28;20229;-85
2022/03/29 08:25:16;;;;;;;12.48;7.97;;;17.80;49.10;;;;;;5053522;28;20225;-86
2022/03/29 08:27:45;;;;;;;16.15;9.85;;;17.90;49.00;;;;;;5053092;28;20216;-84
2022/03/29 08:30:15;;;;;;;11.98;8.32;;;18.10;48.40;;;;;;5052763;28;20261;-84
2022/03/29 08:32:45;;;;;;;11.23;8.30;;;18.20;48.60;;;;;;5053014;28;20229;-84
2022/03/29 08:35:13;;;;;;;10.63;8.43;;;18.50;48.10;;;;;;5052895;28;20236;-85
2022/03/29 08:37:42;;;;;;;9.10;8.18;;;18.90;48.10;;;;;;5052975;28;20202;-86
2022/03/29 08:40:14;;;;;;;9.15;7.82;;;19.60;47.40;;;;;;5052844;28;20292;-86
2022/03/29 08:42:44;;;;;;;13.30;8.95;;;20.40;46.40;;;;;;5052438;28;20239;-85
2022/03/29 08:45:14;;;;;;;8.00;7.30;;;21.20;45.60;;;;;;5052364;28;20262;-85
2022/03/29 08:47:44;;;;;;;9.20;8.10;;;22.00;45.00;;;;;;5053469;28;20202;-86
2022/03/29 08:50:14;;;;;;;9.52;7.97;;;22.80;44.50;;;;;;5053332;28;20201;-86
2022/03/29 08:52:43;;;;;;;9.43;8.52;;;23.40;43.70;;;;;;5052526;28;20273;-86
2022/03/29 08:55:13;;;;;;;10.50;8.48;;;23.30;42.70;;;;;;5052717;28;20236;-85
2022/03/29 08:57:41;;;;;;;11.32;9.07;;;22.80;42.60;;;;;;5052424;28;20289;-86
2022/03/29 09:00:10;;;;;;;10.20;8.73;;;22.50;42.90;;;;;;5052494;28;20292;-84
2022/03/29 09:02:39;;;;;;;8.55;7.75;;;22.50;43.80;;;;;;5052296;28;20236;-84
2022/03/29 09:05:10;;;;;;;9.05;8.20;;;22.70;44.60;;;;;;5052574;28;20268;-85
2022/03/29 09:07:48;;;;;;;8.65;7.57;;;23.00;44.10;;;;;;5052457;28;20230;-84
2022/03/29 09:10:19;;;;;;;10.85;8.45;;;23.40;44.80;;;;;;5052212;28;20285;-85
2022/03/29 09:12:48;;;;;;;9.45;7.90;;;24.20;43.20;;;;;;5052380;28;20300;-84
2022/03/29 09:15:16;;;;;;;9.70;8.57;;;24.50;42.30;;;;;;5052369;28;20211;-85
2022/03/29 09:17:46;;;;;;;8.52;7.72;;;24.90;42.40;;;;;;5052688;28;20257;-85
2022/03/29 09:20:16;;;;;;;12.63;8.85;;;24.40;42.30;;;;;;5052155;28;20214;-84
2022/03/29 09:22:48;;;;;;;8.27;7.50;;;24.90;42.20;;;;;;5052015;28;20222;-85
2022/03/29 09:25:20;;;;;;;11.80;7.43;;;24.90;41.90;;;;;;5052447;28;20297;-85
2022/03/29 09:27:57;;;;;;;7.53;6.82;;;24.70;42.20;;;;;;5052208;28;20210;-84
2022/03/29 09:30:28;;;;;;;7.55;6.85;;;24.30;42.40;;;;;;5052208;28;20297;-84
2022/03/29 09:33:00;;;;;;;8.30;6.82;;;23.60;42.70;;;;;;5052261;28;20301;-84
2022/03/29 09:35:30;;;;;;;8.30;7.50;;;23.40;44.00;;;;;;5052413;28;20285;-84
2022/03/29 09:37:59;;;;;;;8.65;7.82;;;23.50;43.60;;;;;;5052140;28;20290;-84
2022/03/29 09:40:39;;;;;;;7.65;6.95;;;23.70;44.00;;;;;;5051871;28;20248;-85
2022/03/29 09:43:10;;;;;;;8.48;7.65;;;23.60;42.70;;;;;;5051787;28;20313;-85
2022/03/29 09:45:44;;;;;;;7.18;6.43;;;23.60;43.00;;;;;;5051973;28;20205;-85
2022/03/29 09:48:30;;;;;;;8.95;8.05;;;23.90;43.30;;;;;;5052318;28;20206;-85
2022/03/29 09:51:15;;;;;;;9.48;6.60;;;24.00;42.40;;;;;;5051732;28;20284;-84
2022/03/29 09:53:45;;;;;;;9.07;7.85;;;24.50;42.60;;;;;;5052030;28;20225;-85
2022/03/29 09:56:19;;;;;;;8.00;7.25;;;24.40;41.60;;;;;;5052103;28;20204;-85
2022/03/29 09:59:10;;;;;;;13.75;8.52;;;24.30;42.00;;;;;;5052023;28;20205;-84
2022/03/29 10:01:57;;;;;;;9.48;8.07;;;24.30;42.20;;;;;;5051476;28;20240;-85
2022/03/29 10:04:29;;;;;;;10.23;8.05;;;24.50;41.70;;;;;;5051565;28;20210;-84
2022/03/29 10:06:58;;;;;;;8.05;7.25;;;24.70;41.80;;;;;;5052024;28;20213;-84
2022/03/29 10:09:29;;;;;;;12.95;8.30;;;24.90;40.80;;;;;;5051743;28;20201;-85
2022/03/29 10:12:03;;;;;;;9.50;8.07;;;24.70;41.10;;;;;;5051528;28;20232;-85
2022/03/29 10:14:34;;;;;;;7.75;7.05;;;24.90;41.50;;;;;;5051824;28;20209;-84
2022/03/29 10:17:04;;;;;;;10.70;7.32;;;25.10;40.90;;;;;;5051762;28;20210;-85
2022/03/29 10:19:32;;;;;;;9.75;7.85;;;25.10;41.20;;;;;;5051707;28;20292;-84
2022/03/29 10:22:02;;;;;;;8.25;7.20;;;24.70;39.90;;;;;;5051858;28;20234;-84
2022/03/29 10:24:31;;;;;;;9.55;7.75;;;24.70;41.10;;;;;;5055532;28;20205;-85
2022/03/29 10:27:02;;;;;;;13.80;8.15;;;24.90;40.70;;;;;;5055198;28;20244;-84
2022/03/29 10:29:32;;;;;;;7.55;6.85;;;24.90;39.70;;;;;;5055224;28;20297;-84
2022/03/29 10:32:02;;;;;;;7.95;7.07;;;25.10;39.60;;;;;;5054864;28;20226;-84
2022/03/29 10:34:31;;;;;;;7.63;6.85;;;25.40;40.20;;;;;;5055331;28;20292;-84
2022/03/29 10:37:08;;;;;;;8.27;7.57;;;25.30;39.90;;;;;;5055497;28;20284;-84
2022/03/29 10:39:53;;;;;;;9.85;7.47;;;25.20;39.10;;;;;;5055309;28;20269;-85
2022/03/29 10:42:28;;;;;;;6.78;6.25;;;25.40;39.30;;;;;;5054593;28;20253;-84
2022/03/29 10:45:01;;;;;;;7.25;6.47;;;25.60;39.60;;;;;;5054893;28;20201;-84
2022/03/29 10:48:09;;;;;;;8.88;7.40;;;25.80;38.00;;;;;;5054708;28;20221;-84
2022/03/29 10:50:57;;;;;;;11.07;7.88;;;25.90;38.40;;;;;;5055042;28;20213;-84
2022/03/29 10:53:28;;;;;;;17.15;8.10;;;26.40;38.30;;;;;;5058917;28;20206;-85
2022/03/29 10:56:18;;;;;;;7.72;7.03;;;26.20;37.30;;;;;;5055218;28;20228;-84
2022/03/29 11:02:07;;;;;;;8.48;7.68;;;25.30;37.50;;;;;;5151514;27;20569;-85
2022/03/29 11:04:36;;;;;;;7.88;7.18;;;24.30;37.60;;;;;;5151863;27;20210;-85
2022/03/29 11:07:14;;;;;;;8.30;7.45;;;24.70;37.70;;;;;;5151683;27;20206;-85
2022/03/29 11:09:47;;;;;;;7.50;6.80;;;24.80;37.30;;;;;;5151364;27;20209;-85
2022/03/29 11:12:38;;;;;;;7.25;6.60;;;25.00;37.70;;;;;;5152314;27;20253;-84
2022/03/29 11:15:46;;;;;;;9.85;8.85;;;25.20;37.80;;;;;;5152320;27;20206;-86
2022/03/29 11:18:49;;;;;;;10.30;7.80;;;25.40;37.60;;;;;;5152541;27;20202;-85
2022/03/29 11:21:40;;;;;;;10.65;8.75;;;25.70;37.60;;;;;;5150657;27;20245;-85
2022/03/29 11:24:15;;;;;;;8.88;8.07;;;25.90;36.10;;;;;;5151053;27;20270;-85
2022/03/29 11:26:55;;;;;;;8.98;8.10;;;25.10;37.20;;;;;;5150930;27;20233;-85
2022/03/29 11:29:25;;;;;;;7.80;6.90;;;25.00;37.90;;;;;;5150977;27;20206;-85
2022/03/29 11:31:56;;;;;;;9.93;8.50;;;25.10;38.50;;;;;;5150747;27;20225;-85
2022/03/29 11:34:38;;;;;;;9.00;8.10;;;25.10;37.80;;;;;;5151205;27;20294;-85
2022/03/29 11:37:07;;;;;;;9.27;8.35;;;25.30;37.20;;;;;;5150778;27;20206;-85
2022/03/29 11:39:36;;;;;;;13.88;8.18;;;25.20;37.70;;;;;;5150721;27;20266;-85
2022/03/29 11:42:05;;;;;;;11.27;8.75;;;24.90;37.50;;;;;;5150169;27;20242;-85
2022/03/29 11:44:34;;;;;;;8.00;7.30;;;24.50;38.50;;;;;;5150610;27;20281;-86
2022/03/29 11:47:02;;;;;;;9.13;7.63;;;24.50;39.30;;;;;;5151022;27;20210;-86
2022/03/29 11:49:40;;;;;;;9.45;8.55;;;24.70;37.80;;;;;;5150820;27;20207;-86
2022/03/29 11:52:12;;;;;;;8.50;7.70;;;24.10;38.30;;;;;;5150062;27;20238;-86
2022/03/29 11:54:44;;;;;;;9.07;8.02;;;24.30;38.80;;;;;;5150527;27;20218;-85
2022/03/29 11:57:17;;;;;;;9.15;8.25;;;24.70;38.20;;;;;;5150504;27;20209;-85
2022/03/29 11:59:46;;;;;;;8.30;7.60;;;24.90;38.90;;;;;;5150710;27;20210;-85
2022/03/29 12:02:15;;;;;;;16.25;8.77;;;25.10;37.70;;;;;;5150152;27;20282;-85
2022/03/29 12:04:45;;;;;;;7.90;7.10;;;25.50;37.80;;;;;;5150450;27;20203;-86
2022/03/29 12:07:14;;;;;;;10.65;8.45;;;25.20;37.10;;;;;;5150216;27;20203;-85
2022/03/29 12:09:47;;;;;;;8.90;8.02;;;25.00;37.40;;;;;;5150009;27;20289;-85
2022/03/29 12:12:20;;;;;;;12.80;8.82;;;24.80;37.80;;;;;;5141717;27;20306;-85
2022/03/29 12:14:49;;;;;;;9.00;7.93;;;24.60;37.90;;;;;;5136476;27;20248;-85
2022/03/29 12:17:17;;;;;;;7.72;6.97;;;24.70;38.00;;;;;;5136430;27;20209;-85
2022/03/29 12:19:49;;;;;;;9.65;8.07;;;24.80;37.30;;;;;;5135977;27;20310;-85
2022/03/29 12:22:19;;;;;;;8.13;7.40;;;25.20;37.10;;;;;;5135592;27;20227;-84
2022/03/29 12:24:54;;;;;;;8.25;7.22;;;25.20;37.30;;;;;;5136341;27;20203;-84
2022/03/29 12:27:23;;;;;;;8.27;7.45;;;25.10;36.60;;;;;;5136092;27;20267;-85
2022/03/29 12:29:53;;;;;;;9.35;7.85;;;24.90;36.50;;;;;;5135904;27;20211;-85
2022/03/29 12:32:22;;;;;;;8.80;7.63;;;24.40;36.90;;;;;;5135693;27;20226;-86
2022/03/29 12:34:57;;;;;;;8.73;6.88;;;23.90;37.10;;;;;;5135977;27;20237;-86
2022/03/29 12:37:27;;;;;;;8.73;7.07;;;24.30;37.50;;;;;;5136202;27;20248;-85
2022/03/29 12:39:57;;;;;;;8.43;7.63;;;24.20;37.50;;;;;;5136397;27;20203;-85
2022/03/29 12:42:30;;;;;;;8.68;6.30;;;24.50;36.80;;;;;;5135301;27;20254;-85
2022/03/29 12:45:02;;;;;;;8.93;7.57;;;24.50;37.00;;;;;;5136359;27;20224;-85
2022/03/29 12:47:32;;;;;;;8.93;7.22;;;24.70;36.80;;;;;;5135670;27;20240;-85
2022/03/29 12:50:02;;;;;;;7.70;6.75;;;24.70;36.70;;;;;;5135497;27;20226;-85
2022/03/29 12:52:38;;;;;;;9.82;7.10;;;24.50;36.60;;;;;;5135464;27;20223;-86
2022/03/29 12:55:07;;;;;;;8.68;7.55;;;24.50;36.70;;;;;;5135444;27;20286;-85
2022/03/29 12:57:37;;;;;;;9.80;7.88;;;24.40;36.00;;;;;;5135284;27;20225;-85
2022/03/29 13:00:09;;;;;;;8.23;7.18;;;24.70;36.30;;;;;;5135280;27;20215;-86
2022/03/29 13:02:43;;;;;;;10.27;7.43;;;24.20;36.00;;;;;;5134713;27;20303;-85
2022/03/29 13:05:14;;;;;;;8.38;7.53;;;23.90;36.60;;;;;;5135556;27;20213;-86
2022/03/29 13:07:44;;;;;;;11.55;9.45;;;23.90;36.60;;;;;;5135353;27;20215;-84
2022/03/29 13:10:15;;;;;;;9.32;8.43;;;24.00;36.40;;;;;;5135253;27;20213;-85